createdAt,value
2022-10-03T00:00:42.338Z,16.75
2022-10-03T00:06:15.501Z,18.42
2022-10-03T00:12:10.835Z,14.13
2022-10-03T00:17:27.415Z,23.10
2022-10-03T00:22:48.231Z,13.55
2022-10-03T00:28:05.287Z,16.33
2022-10-03T00:33:36.385Z,12.85
2022-10-03T00:38:40.735Z,16.92
2022-10-03T00:44:19.899Z,16.20
2022-10-03T00:49:39.099Z,17.95
2022-10-03T00:55:11.333Z,13.20
2022-10-03T01:00:26.031Z,11.20
2022-10-03T01:05:46.539Z,17.80
2022-10-03T01:11:28.771Z,24.50
2022-10-03T01:17:05.471Z,24.55
2022-10-03T01:22:22.293Z,13.68
2022-10-03T01:28:10.359Z,19.83
2022-10-03T01:33:24.683Z,12.13
2022-10-03T01:38:58.815Z,14.68
2022-10-03T01:44:24.557Z,19.42
2022-10-03T01:49:47.421Z,15.10
2022-10-03T01:55:04.054Z,15.25
2022-10-03T02:00:14.637Z,14.43
2022-10-03T02:05:48.287Z,11.77
2022-10-03T02:11:08.504Z,15.20
2022-10-03T02:16:52.827Z,18.60
2022-10-03T02:21:56.902Z,18.27
2022-10-03T02:27:31.745Z,13.45
2022-10-03T02:32:58.472Z,17.90
2022-10-03T02:38:17.652Z,14.88
2022-10-03T02:43:50.244Z,14.38
2022-10-03T02:49:13.378Z,20.40
2022-10-03T02:54:33.298Z,17.95
2022-10-03T03:00:07.211Z,16.63
2022-10-03T03:05:37.171Z,18.83
2022-10-03T03:10:52.487Z,15.07
2022-10-03T03:16:18.447Z,22.58
2022-10-03T03:21:41.933Z,18.77
2022-10-03T03:26:50.811Z,20.13
2022-10-03T03:32:11.028Z,15.35
2022-10-03T03:37:44.724Z,15.98
2022-10-03T03:43:08.803Z,16.33
2022-10-03T03:48:28.784Z,13.80
2022-10-03T03:53:54.060Z,22.35
2022-10-03T03:59:32.625Z,14.32
2022-10-03T04:04:52.125Z,19.67
2022-10-03T04:10:26.274Z,13.27
2022-10-03T04:15:36.083Z,13.48
2022-10-03T04:21:09.833Z,21.02
2022-10-03T04:26:31.259Z,20.38
2022-10-03T04:31:44.220Z,14.07
2022-10-03T04:36:55.152Z,18.80
2022-10-03T04:42:08.210Z,13.43
2022-10-03T04:47:19.129Z,14.45
2022-10-03T04:52:47.720Z,10.23
2022-10-03T04:58:06.811Z,20.08
2022-10-03T05:03:28.612Z,19.52
2022-10-03T05:08:54.690Z,15.68
2022-10-03T05:14:12.734Z,21.17
2022-10-03T05:19:29.555Z,12.95
2022-10-03T05:24:49.579Z,15.43
2022-10-03T05:30:06.969Z,12.55
2022-10-03T05:35:31.334Z,16.73
2022-10-03T05:40:37.198Z,17.83
2022-10-03T05:45:48.890Z,12.73
2022-10-03T05:51:15.598Z,12.00
2022-10-03T05:56:44.911Z,9.98
2022-10-03T06:02:35.894Z,10.55
2022-10-03T06:07:56.276Z,18.33
2022-10-03T06:13:04.063Z,15.60
2022-10-03T06:18:26.895Z,13.10
2022-10-03T06:23:47.019Z,15.07
2022-10-03T06:29:46.514Z,14.95
2022-10-03T06:35:19.069Z,16.92
2022-10-03T06:40:32.602Z,12.05
2022-10-03T06:45:50.127Z,17.02
2022-10-03T06:51:46.220Z,20.15
2022-10-03T06:57:13.042Z,18.48
2022-10-03T07:02:20.793Z,15.55
2022-10-03T07:07:40.924Z,11.35
2022-10-03T07:13:11.676Z,10.73
2022-10-03T07:18:27.683Z,20.27
2022-10-03T07:24:10.216Z,24.13
2022-10-03T07:29:14.635Z,17.13
2022-10-03T07:34:31.041Z,10.82
2022-10-03T07:40:11.352Z,13.38
2022-10-03T07:45:34.729Z,11.68
2022-10-03T07:51:15.131Z,9.77
2022-10-03T07:56:32.407Z,9.98
2022-10-03T08:01:42.767Z,12.85
2022-10-03T08:06:56.063Z,10.68
2022-10-03T08:12:12.941Z,13.00
2022-10-03T08:17:57.280Z,10.45
2022-10-03T08:23:34.620Z,17.38
2022-10-03T08:28:58.121Z,13.40
2022-10-03T08:34:38.565Z,15.55
2022-10-03T08:39:49.345Z,13.68
2022-10-03T08:45:05.876Z,11.55
2022-10-03T08:50:25.600Z,8.60
2022-10-03T08:55:45.639Z,15.30
2022-10-03T09:01:23.602Z,14.80
2022-10-03T09:07:17.128Z,9.45
2022-10-03T09:12:51.070Z,9.32
2022-10-03T09:18:11.022Z,9.73
2022-10-03T09:23:38.902Z,8.30
2022-10-03T09:28:48.057Z,10.85
2022-10-03T09:33:55.804Z,12.23
2022-10-03T09:39:26.564Z,12.02
2022-10-03T09:44:46.358Z,11.88
2022-10-03T09:50:28.619Z,9.30
2022-10-03T09:55:36.480Z,8.32
2022-10-03T10:01:10.916Z,5.40
2022-10-03T10:06:15.446Z,5.53
2022-10-03T10:11:41.703Z,12.50
2022-10-03T10:17:20.191Z,9.20
2022-10-03T10:22:49.966Z,9.55
2022-10-03T10:28:06.615Z,9.88
2022-10-03T10:33:30.042Z,9.27
2022-10-03T10:38:56.853Z,6.78
2022-10-03T10:44:29.541Z,12.90
2022-10-03T10:49:46.101Z,6.75
2022-10-03T10:55:15.389Z,8.45
2022-10-03T11:00:37.541Z,9.70
2022-10-03T11:05:46.990Z,8.77
2022-10-03T11:11:01.082Z,11.43
2022-10-03T11:16:08.473Z,16.25
2022-10-03T11:21:52.761Z,12.45
2022-10-03T11:27:00.155Z,9.35
2022-10-03T11:32:13.801Z,11.07
2022-10-03T11:37:38.770Z,7.88
2022-10-03T11:43:00.635Z,9.85
2022-10-03T11:48:33.368Z,10.65
2022-10-03T11:54:03.626Z,10.35
2022-10-03T11:59:32.880Z,5.90
2022-10-03T12:04:45.629Z,11.77
2022-10-03T12:10:30.454Z,7.30
2022-10-03T12:15:45.687Z,6.93
2022-10-03T12:21:08.241Z,11.15
2022-10-03T12:26:17.372Z,9.50
2022-10-03T12:31:36.176Z,10.18
2022-10-03T12:37:02.892Z,9.43
2022-10-03T12:42:24.419Z,4.72
2022-10-03T12:47:56.333Z,7.93
2022-10-03T12:53:16.316Z,7.53
2022-10-03T12:58:39.049Z,9.52
2022-10-03T13:03:50.737Z,8.20
2022-10-03T13:09:10.752Z,10.68
2022-10-03T13:14:33.882Z,7.57
2022-10-03T13:19:58.171Z,6.32
2022-10-03T13:25:14.790Z,14.02
2022-10-03T13:30:31.359Z,3.83
2022-10-03T13:35:58.861Z,9.15
2022-10-03T13:41:06.484Z,8.40
2022-10-03T13:46:16.735Z,7.00
2022-10-03T13:51:34.665Z,6.03
2022-10-03T13:57:05.491Z,6.20
2022-10-03T14:02:08.463Z,8.85
2022-10-03T14:07:16.167Z,10.25
2022-10-03T14:13:12.704Z,11.38
2022-10-03T14:18:39.035Z,8.30
2022-10-03T14:23:59.860Z,5.72
2022-10-03T14:29:14.746Z,7.50
2022-10-03T14:34:19.382Z,9.75
2022-10-03T14:39:46.578Z,20.95
2022-10-03T14:44:57.294Z,10.20
2022-10-03T14:50:00.317Z,10.90
2022-10-03T14:55:15.280Z,13.73
2022-10-03T15:00:27.520Z,9.75
2022-10-03T15:05:35.329Z,8.45
2022-10-03T15:10:37.752Z,4.88
2022-10-03T15:15:42.026Z,8.85
2022-10-03T15:20:46.220Z,7.25
2022-10-03T15:25:53.875Z,4.75
2022-10-03T15:30:58.199Z,5.57
2022-10-03T15:36:25.642Z,4.15
2022-10-03T15:41:50.334Z,9.90
2022-10-03T15:46:56.931Z,6.22
2022-10-03T15:52:09.684Z,8.13
2022-10-03T15:57:33.243Z,7.15
2022-10-03T16:02:43.261Z,9.50
2022-10-03T16:08:09.316Z,6.70
2022-10-03T16:13:16.744Z,11.43
2022-10-03T16:18:18.386Z,5.38
2022-10-03T16:23:24.572Z,6.63
2022-10-03T16:28:30.654Z,5.25
2022-10-03T16:33:40.783Z,7.35
2022-10-03T16:38:52.493Z,11.70
2022-10-03T16:43:56.710Z,5.72
2022-10-03T16:49:20.613Z,13.20
2022-10-03T16:54:24.072Z,5.72
2022-10-03T16:59:28.605Z,6.28
2022-10-03T17:04:39.530Z,9.63
2022-10-03T17:09:46.500Z,3.92
2022-10-03T17:14:48.597Z,10.23
2022-10-03T17:19:55.916Z,11.35
2022-10-03T17:25:04.324Z,9.88
2022-10-03T17:30:22.213Z,9.77
2022-10-03T17:36:05.917Z,4.90
2022-10-03T17:41:23.443Z,13.18
2022-10-03T17:47:05.210Z,11.05
2022-10-03T17:52:14.103Z,8.63
2022-10-03T17:57:20.702Z,14.98
2022-10-03T18:02:31.769Z,9.05
2022-10-03T18:07:35.167Z,8.75
2022-10-03T18:12:40.435Z,6.95
2022-10-03T18:18:15.313Z,9.07
2022-10-03T18:23:49.824Z,7.80
2022-10-03T18:28:57.378Z,8.35
2022-10-03T18:34:09.143Z,6.38
2022-10-03T18:39:22.681Z,4.53
2022-10-03T18:44:28.327Z,8.45
2022-10-03T18:49:34.564Z,9.45
2022-10-03T18:54:54.501Z,9.75
2022-10-03T19:00:03.936Z,4.82
2022-10-03T19:05:26.774Z,6.20
2022-10-03T19:10:39.649Z,6.00
2022-10-03T19:16:15.101Z,4.78
2022-10-03T19:21:20.140Z,3.15
2022-10-03T19:26:31.253Z,7.00
2022-10-03T19:31:47.129Z,3.10
2022-10-03T19:36:51.713Z,3.25
2022-10-03T19:41:57.187Z,7.05
2022-10-03T19:47:05.485Z,2.97
2022-10-03T19:52:31.405Z,7.28
2022-10-03T19:57:41.764Z,5.60
2022-10-03T20:02:45.148Z,5.90
2022-10-03T20:07:55.953Z,4.53
2022-10-03T20:13:03.580Z,6.60
2022-10-03T20:18:07.149Z,6.60
2022-10-03T20:23:15.328Z,6.63
2022-10-03T20:28:23.484Z,6.55
2022-10-03T20:33:30.110Z,6.60
2022-10-03T20:38:56.531Z,6.22
2022-10-03T20:44:11.101Z,8.30
2022-10-03T20:49:18.657Z,18.35
2022-10-03T20:54:23.430Z,8.38
2022-10-03T20:59:45.431Z,10.82
2022-10-03T21:05:01.628Z,4.53
2022-10-03T21:10:38.609Z,7.72
2022-10-03T21:15:51.122Z,7.25
2022-10-03T21:21:23.645Z,19.35
2022-10-03T21:26:31.060Z,6.38
2022-10-03T21:31:48.278Z,5.55
2022-10-03T21:37:11.245Z,9.05
2022-10-03T21:42:19.015Z,9.07
2022-10-03T21:47:32.527Z,8.77
2022-10-03T21:53:27.776Z,10.07
2022-10-03T21:58:49.904Z,8.00
2022-10-03T22:04:01.636Z,8.75
2022-10-03T22:09:11.388Z,9.20
2022-10-03T22:14:18.768Z,10.35
2022-10-03T22:19:23.233Z,10.20
2022-10-03T22:24:38.893Z,10.98
2022-10-03T22:30:17.542Z,7.60
2022-10-03T22:35:19.202Z,9.43
2022-10-03T22:40:22.034Z,8.52
2022-10-03T22:45:26.367Z,9.50
2022-10-03T22:50:32.750Z,7.75
2022-10-03T22:55:34.476Z,7.18
2022-10-03T23:00:36.393Z,8.07
2022-10-03T23:05:53.330Z,7.18
2022-10-03T23:10:59.995Z,4.90
2022-10-03T23:16:25.641Z,7.47
2022-10-03T23:21:27.439Z,7.28
2022-10-03T23:27:06.172Z,4.55
2022-10-03T23:32:09.967Z,9.80
2022-10-03T23:37:11.580Z,8.32
2022-10-03T23:42:25.343Z,5.05
2022-10-03T23:47:32.690Z,3.90
2022-10-03T23:52:46.571Z,6.22
2022-10-03T23:57:48.520Z,7.35
